Time;durP1;ratioP1;P1;durP2;ratioP2;P2;SDS_P1;SDS_P2;PMS_P1;PMS_P2;Temp;Humidity;BMP_temperature;BMP_pressure;BME280_temperature;BME280_humidity;BME280_pressure;Samples;Min_cycle;Max_cycle;Signal;HPM_P1;HPM_P2
2022/05/01 00:01:41;;;;;;;16.42;13.93;;;;;;;8.91;76.69;102411.56;4973215;28;20073;-79
2022/05/01 00:04:07;;;;;;;16.80;14.32;;;;;;;8.91;76.50;102417.66;4972803;28;20498;-78
2022/05/01 00:06:33;;;;;;;19.05;14.27;;;;;;;8.89;76.70;102421.25;4990012;28;20038;-77
2022/05/01 00:09:00;;;;;;;16.73;14.07;;;;;;;8.84;76.72;102408.34;4991807;28;20033;-78
2022/05/01 00:11:26;;;;;;;16.90;14.23;;;;;;;8.83;76.93;102418.91;4991917;28;20022;-77
2022/05/01 00:13:51;;;;;;;15.80;14.18;;;;;;;8.81;76.82;102416.34;4988223;28;20057;-78
2022/05/01 00:16:16;;;;;;;18.77;14.02;;;;;;;8.79;76.82;102421.63;4973711;28;20129;-77
2022/05/01 00:18:42;;;;;;;16.23;13.95;;;;;;;8.80;76.96;102417.22;4991329;28;20040;-77
2022/05/01 00:21:08;;;;;;;18.48;14.65;;;;;;;8.78;77.73;102419.06;5006322;28;20496;-77
2022/05/01 00:23:33;;;;;;;19.83;15.13;;;;;;;8.78;77.40;102422.53;4991625;28;20034;-77
2022/05/01 00:26:00;;;;;;;16.90;14.63;;;;;;;8.77;76.98;102417.34;4990783;28;20202;-77
2022/05/01 00:28:26;;;;;;;16.50;14.40;;;;;;;8.75;77.36;102416.56;4990137;28;20026;-78
2022/05/01 00:30:51;;;;;;;18.60;15.23;;;;;;;8.76;77.32;102416.50;4984455;28;20019;-78
2022/05/01 00:38:44;;;;;;;18.58;15.20;;;;;;;8.72;77.83;102411.44;4972506;28;20054;-77
2022/05/01 00:41:11;;;;;;;17.60;15.30;;;;;;;8.72;77.85;102406.19;4971172;28;20046;-77
2022/05/01 00:44:16;;;;;;;18.50;15.23;;;;;;;8.79;77.03;102408.50;4972319;28;20030;-78
2022/05/01 00:46:44;;;;;;;19.05;15.75;;;;;;;8.73;78.57;102408.75;4968580;28;20637;-77
2022/05/01 00:49:18;;;;;;;17.58;15.57;;;;;;;8.74;78.13;102405.22;4969208;28;20541;-77
2022/05/01 00:51:47;;;;;;;18.70;15.32;;;;;;;8.72;78.41;102407.06;4961858;28;20050;-78
2022/05/01 00:54:15;;;;;;;17.67;14.88;;;;;;;8.72;78.25;102407.06;4971600;28;20386;-79
2022/05/01 00:56:43;;;;;;;16.42;14.63;;;;;;;8.70;78.22;102401.00;4972204;28;20711;-77
2022/05/01 00:59:09;;;;;;;18.20;15.40;;;;;;;8.69;78.25;102396.69;4971847;28;20471;-77
2022/05/01 01:01:35;;;;;;;17.25;15.13;;;;;;;8.68;78.44;102394.97;4971288;28;20050;-79
2022/05/01 01:04:00;;;;;;;18.30;15.52;;;;;;;8.65;78.32;102397.72;4970483;28;20490;-78
2022/05/01 01:06:26;;;;;;;17.75;14.65;;;;;;;8.64;77.98;102396.03;4988493;28;20121;-77
2022/05/01 01:08:52;;;;;;;19.65;15.18;;;;;;;8.62;78.14;102395.22;4985135;28;20046;-77
2022/05/01 01:11:18;;;;;;;19.45;15.43;;;;;;;8.61;78.77;102398.78;4980038;28;20093;-77
2022/05/01 01:13:46;;;;;;;17.58;14.80;;;;;;;8.61;78.57;102397.91;4975252;28;20026;-77
2022/05/01 01:16:11;;;;;;;20.13;15.68;;;;;;;8.58;78.39;102391.03;4989971;28;20046;-77
2022/05/01 01:18:39;;;;;;;17.58;15.48;;;;;;;8.57;78.54;102397.19;4990113;28;20077;-77
2022/05/01 01:21:13;;;;;;;17.60;15.70;;;;;;;8.53;79.24;102400.88;4989282;28;20041;-78
2022/05/01 01:23:41;;;;;;;19.23;15.50;;;;;;;8.54;78.95;102392.06;4990665;28;20490;-78
2022/05/01 01:26:08;;;;;;;20.20;15.95;;;;;;;8.51;79.43;102394.81;4977458;28;20031;-78
2022/05/01 01:28:35;;;;;;;20.67;16.38;;;;;;;8.49;79.33;102394.03;4971903;28;20027;-78
2022/05/01 01:33:49;;;;;;;19.45;16.45;;;;;;;8.46;79.51;102394.16;4988735;28;20097;-78
2022/05/01 01:36:14;;;;;;;18.02;15.65;;;;;;;8.40;79.47;102389.13;4988777;28;20041;-78
2022/05/01 01:38:40;;;;;;;19.27;16.85;;;;;;;8.44;79.66;102390.75;4990982;28;20037;-78
2022/05/01 01:41:09;;;;;;;18.52;16.48;;;;;;;8.41;79.24;102391.72;4989229;28;20054;-77
2022/05/01 01:43:36;;;;;;;18.63;16.60;;;;;;;8.37;79.82;102389.25;4990126;28;20376;-78
2022/05/01 01:46:02;;;;;;;20.05;16.50;;;;;;;8.35;79.91;102383.22;4990620;28;20037;-78
2022/05/01 01:48:27;;;;;;;20.55;16.45;;;;;;;8.32;79.99;102381.53;4990632;28;20030;-77
2022/05/01 01:51:04;;;;;;;20.20;16.83;;;;;;;8.35;79.54;102383.22;4980107;28;20034;-78
2022/05/01 01:53:31;;;;;;;18.95;16.95;;;;;;;8.32;79.75;102386.78;4987895;28;20058;-79
2022/05/01 01:55:57;;;;;;;17.73;15.50;;;;;;;8.32;79.56;102392.03;4981317;28;20386;-77
2022/05/01 01:58:24;;;;;;;20.23;17.08;;;;;;;8.28;80.08;102386.97;4989420;28;20034;-78
2022/05/01 02:00:49;;;;;;;20.77;16.58;;;;;;;8.28;80.08;102386.97;4985527;28;20023;-78
2022/05/01 02:03:15;;;;;;;20.17;16.60;;;;;;;8.26;80.10;102396.66;4987324;28;20430;-78
2022/05/01 02:05:41;;;;;;;23.30;16.92;;;;;;;8.26;80.22;102394.06;4988060;28;20382;-78
2022/05/01 02:08:07;;;;;;;20.73;16.55;;;;;;;8.23;80.14;102381.91;4989777;28;20019;-78
2022/05/01 02:10:33;;;;;;;19.73;16.27;;;;;;;8.20;80.25;102395.16;4989109;28;20034;-78
2022/05/01 02:13:02;;;;;;;18.38;16.30;;;;;;;8.20;80.40;102394.28;4989205;28;20034;-78
2022/05/01 02:15:30;;;;;;;21.20;17.98;;;;;;;8.17;80.42;102377.78;4989518;28;20050;-78
2022/05/01 02:17:58;;;;;;;19.25;16.13;;;;;;;8.17;80.42;102384.78;4988443;28;20037;-78
2022/05/01 02:20:24;;;;;;;19.20;17.10;;;;;;;8.20;80.64;102386.44;4989101;28;20171;-77
2022/05/01 02:22:49;;;;;;;21.45;17.38;;;;;;;8.20;79.87;102379.41;4988764;28;20464;-78
2022/05/01 02:25:14;;;;;;;21.23;17.83;;;;;;;8.22;80.48;102379.34;4979537;28;20121;-78
2022/05/01 02:27:39;;;;;;;20.30;16.80;;;;;;;8.21;79.88;102377.66;4989683;28;20033;-75
2022/05/01 02:30:08;;;;;;;20.17;16.98;;;;;;;8.20;80.45;102381.19;4989751;28;20030;-79
2022/05/01 02:32:37;;;;;;;20.65;17.10;;;;;;;8.17;80.82;102369.06;4985594;28;20201;-78
2022/05/01 02:35:04;;;;;;;21.35;17.23;;;;;;;8.16;80.87;102368.19;4992691;28;20032;-78
2022/05/01 02:37:30;;;;;;;21.67;17.42;;;;;;;8.13;80.76;102360.47;4994404;28;20073;-79
2022/05/01 02:39:55;;;;;;;21.20;16.90;;;;;;;8.12;80.61;102358.75;4992057;28;20023;-78
2022/05/01 02:42:20;;;;;;;20.30;17.10;;;;;;;8.07;80.59;102358.09;4992488;28;20671;-78
2022/05/01 02:44:45;;;;;;;23.17;18.13;;;;;;;8.05;80.84;102362.53;4989397;28;20070;-78
2022/05/01 02:47:11;;;;;;;22.35;18.13;;;;;;;8.03;80.79;102359.13;4972485;28;20430;-77
2022/05/01 02:49:37;;;;;;;23.33;18.52;;;;;;;8.01;80.86;102355.72;4974820;28;20031;-79
2022/05/01 02:52:05;;;;;;;23.88;17.83;;;;;;;7.94;81.34;102359.44;4972859;28;20030;-78
2022/05/01 02:54:30;;;;;;;20.00;17.52;;;;;;;7.96;80.79;102362.88;4974148;28;20541;-78
2022/05/01 02:56:55;;;;;;;21.60;18.23;;;;;;;7.92;80.83;102365.66;4974283;28;20035;-78
2022/05/01 02:59:21;;;;;;;23.00;18.10;;;;;;;7.89;81.65;102358.78;4974290;28;20122;-78
2022/05/01 03:01:46;;;;;;;23.08;17.90;;;;;;;7.84;81.87;102360.72;4992969;28;20104;-78
2022/05/01 03:04:11;;;;;;;23.38;18.70;;;;;;;7.84;81.87;102358.09;4993693;28;20015;-78
2022/05/01 03:06:37;;;;;;;22.40;18.25;;;;;;;7.82;81.88;102360.78;4993820;28;20024;-78
2022/05/01 03:09:03;;;;;;;23.42;18.77;;;;;;;7.79;81.67;102354.81;4978387;28;20031;-78
2022/05/01 03:11:29;;;;;;;22.30;19.38;;;;;;;7.76;81.65;102360.16;4973878;28;20035;-78
2022/05/01 03:13:54;;;;;;;24.45;19.88;;;;;;;7.75;81.66;102354.06;4973712;28;20109;-78
2022/05/01 03:16:20;;;;;;;24.48;19.08;;;;;;;7.68;82.27;102352.59;4972825;28;20026;-78
2022/05/01 03:24:14;;;;;;;25.48;19.90;;;;;;;7.62;82.34;102354.59;4973450;28;20041;-79
2022/05/01 03:26:41;;;;;;;24.88;20.20;;;;;;;7.57;82.13;102352.13;4977147;28;20031;-78
2022/05/01 03:29:07;;;;;;;23.95;20.55;;;;;;;7.55;82.39;102349.56;4988490;28;20042;-78
2022/05/01 03:31:35;;;;;;;26.80;20.98;;;;;;;7.52;82.96;102344.44;4992692;28;20025;-78
2022/05/01 03:34:03;;;;;;;24.65;20.90;;;;;;;7.51;82.29;102345.34;4992507;28;20061;-79
2022/05/01 03:36:28;;;;;;;23.75;19.92;;;;;;;7.50;83.01;102340.19;4990412;28;20035;-78
2022/05/01 03:38:53;;;;;;;24.67;19.92;;;;;;;7.48;82.83;102344.63;4992017;28;20032;-79
2022/05/01 03:41:19;;;;;;;24.27;21.38;;;;;;;7.43;82.87;102347.41;4992785;28;20050;-79
2022/05/01 03:43:44;;;;;;;27.00;21.50;;;;;;;7.38;83.18;102338.88;4992177;28;20049;-79
2022/05/01 03:46:10;;;;;;;26.02;20.90;;;;;;;7.33;83.20;102332.97;4993024;28;20049;-79
2022/05/01 03:48:35;;;;;;;30.05;21.55;;;;;;;7.31;83.11;102336.53;4991695;28;20027;-79
2022/05/01 03:51:02;;;;;;;24.27;21.65;;;;;;;7.28;83.34;102337.50;4990917;28;20014;-79
2022/05/01 03:53:29;;;;;;;25.17;21.60;;;;;;;7.23;83.12;102339.44;4992596;28;20026;-78
2022/05/01 03:55:54;;;;;;;27.98;22.27;;;;;;;7.20;83.23;102335.19;4992809;28;20034;-79
2022/05/01 03:58:20;;;;;;;27.98;21.52;;;;;;;7.21;83.33;102341.25;4990566;28;20390;-79
2022/05/01 04:00:47;;;;;;;28.77;22.30;;;;;;;7.16;83.44;102341.41;4989109;28;20388;-77
2022/05/01 04:03:16;;;;;;;28.13;22.38;;;;;;;7.15;83.59;102341.47;4981102;28;20283;-77
2022/05/01 04:05:42;;;;;;;25.58;22.27;;;;;;;7.05;83.19;102335.69;4990326;28;20027;-79
2022/05/01 04:08:08;;;;;;;28.15;22.58;;;;;;;7.03;83.51;102341.91;4990601;28;20026;-78
2022/05/01 04:10:38;;;;;;;29.55;22.92;;;;;;;7.01;83.85;102344.56;4992205;28;20029;-79
2022/05/01 04:13:05;;;;;;;27.73;23.23;;;;;;;6.96;83.84;102343.88;4990289;28;20033;-78
2022/05/01 04:15:31;;;;;;;26.83;22.75;;;;;;;6.90;84.04;102341.47;4991077;28;20084;-78
2022/05/01 04:17:56;;;;;;;27.20;23.52;;;;;;;6.89;84.12;102337.16;4991740;28;20050;-78
2022/05/01 04:20:22;;;;;;;28.67;23.30;;;;;;;6.84;83.71;102347.78;4990720;28;20027;-78
2022/05/01 04:22:48;;;;;;;27.63;22.83;;;;;;;6.78;83.63;102336.66;4990412;28;20057;-77
2022/05/01 04:25:22;;;;;;;26.42;23.30;;;;;;;6.75;84.27;102334.13;4989048;28;20056;-78
2022/05/01 04:27:52;;;;;;;30.23;23.75;;;;;;;6.69;84.02;102337.81;4989454;28;20381;-78
2022/05/01 04:30:19;;;;;;;27.92;23.25;;;;;;;6.65;84.40;102331.00;4990352;28;20057;-78
2022/05/01 04:32:58;;;;;;;30.30;24.13;;;;;;;6.66;84.23;102339.69;4990156;28;20022;-79
2022/05/01 04:35:26;;;;;;;30.20;25.33;;;;;;;6.58;84.62;102335.56;4990621;28;20453;-79
2022/05/01 04:37:52;;;;;;;27.73;23.65;;;;;;;6.53;84.61;102340.09;4991038;28;20029;-79
2022/05/01 04:40:18;;;;;;;33.38;24.83;;;;;;;6.52;84.57;102329.69;5004689;28;20045;-79
2022/05/01 04:42:43;;;;;;;31.35;24.48;;;;;;;6.51;84.28;102343.69;4990976;28;20377;-79
2022/05/01 04:45:11;;;;;;;28.45;23.95;;;;;;;6.42;84.54;102338.75;5005459;28;20037;-79
2022/05/01 04:47:36;;;;;;;33.42;24.90;;;;;;;6.42;84.75;102339.63;4988942;28;20414;-78
2022/05/01 04:50:01;;;;;;;32.72;25.98;;;;;;;6.43;85.15;102343.94;4988293;28;20026;-79
2022/05/01 04:52:26;;;;;;;33.63;26.52;;;;;;;6.40;85.14;102341.38;4990379;28;20721;-78
2022/05/01 04:54:52;;;;;;;35.65;26.98;;;;;;;6.39;85.13;102344.91;4988564;28;20099;-78
2022/05/01 04:57:17;;;;;;;33.75;26.83;;;;;;;6.36;85.47;102346.78;4988414;28;20053;-79
2022/05/01 04:59:43;;;;;;;34.67;26.70;;;;;;;6.33;85.44;102347.72;4990316;28;20030;-78
2022/05/01 05:02:08;;;;;;;34.65;27.20;;;;;;;6.34;85.31;102349.44;4989436;28;20030;-78
2022/05/01 05:04:34;;;;;;;33.63;27.30;;;;;;;6.29;86.03;102354.81;4990392;28;20026;-78
2022/05/01 05:06:59;;;;;;;33.70;28.15;;;;;;;6.32;85.80;102355.63;4989912;28;20030;-78
2022/05/01 05:12:09;;;;;;;34.60;28.20;;;;;;;6.34;85.97;102356.44;4990249;28;20034;-78
2022/05/01 05:14:35;;;;;;;36.97;27.70;;;;;;;6.31;85.94;102346.06;4988621;28;20133;-78
2022/05/01 05:17:01;;;;;;;34.95;28.50;;;;;;;6.28;85.86;102350.50;4990444;28;20389;-78
2022/05/01 05:19:27;;;;;;;34.90;27.58;;;;;;;6.27;85.80;102354.00;4989037;28;20022;-78
2022/05/01 05:21:52;;;;;;;37.08;28.65;;;;;;;6.24;86.02;102358.47;4989527;28;20062;-79
2022/05/01 05:24:17;;;;;;;34.53;27.83;;;;;;;6.23;85.93;102359.38;4989812;28;20497;-79
2022/05/01 05:26:43;;;;;;;34.50;27.63;;;;;;;6.22;86.19;102362.91;4988818;28;20030;-78
2022/05/01 05:29:08;;;;;;;37.08;28.88;;;;;;;6.11;86.53;102346.72;4987888;28;20109;-78
2022/05/01 05:31:34;;;;;;;36.33;27.73;;;;;;;6.17;86.96;102365.66;4989315;28;20014;-79
2022/05/01 05:34:00;;;;;;;32.97;28.38;;;;;;;6.19;86.69;102369.09;4989898;28;20034;-79
2022/05/01 05:36:25;;;;;;;34.60;28.13;;;;;;;6.21;86.71;102375.13;5004728;28;20053;-79
2022/05/01 05:38:50;;;;;;;41.03;30.30;;;;;;;6.22;86.99;102370.75;4990159;28;20084;-79
2022/05/01 05:41:18;;;;;;;36.00;29.20;;;;;;;6.24;87.17;102372.41;4990005;28;20036;-79
2022/05/01 05:43:46;;;;;;;37.22;29.85;;;;;;;6.25;86.80;102379.34;4988344;28;20486;-78
2022/05/01 05:46:11;;;;;;;42.25;31.05;;;;;;;6.25;87.40;102374.13;4988621;28;20064;-79
2022/05/01 05:48:37;;;;;;;37.38;30.40;;;;;;;6.27;87.06;102369.69;4988178;28;20057;-79
2022/05/01 05:51:06;;;;;;;36.92;30.00;;;;;;;6.32;87.12;102379.16;4988781;28;20025;-78
2022/05/01 05:53:32;;;;;;;37.00;30.27;;;;;;;6.31;87.32;102375.69;4987954;28;20034;-78
2022/05/01 05:55:57;;;;;;;40.35;31.88;;;;;;;6.34;87.87;102377.34;4988815;28;20022;-78
2022/05/01 05:58:23;;;;;;;38.00;31.55;;;;;;;6.38;87.91;102384.16;4988322;28;20030;-78
2022/05/01 06:00:48;;;;;;;41.13;31.88;;;;;;;6.43;88.14;102384.91;4988457;28;20034;-77
2022/05/01 06:03:13;;;;;;;38.30;29.92;;;;;;;6.47;87.87;102378.69;4988686;28;20026;-78
2022/05/01 06:05:41;;;;;;;38.47;31.50;;;;;;;6.52;88.20;102379.38;4986299;28;20030;-78
2022/05/01 06:08:07;;;;;;;39.65;31.20;;;;;;;6.55;87.62;102376.66;4988858;28;20462;-79
2022/05/01 06:10:33;;;;;;;39.28;30.45;;;;;;;6.59;88.22;102373.03;4988602;28;20048;-78
2022/05/01 06:12:58;;;;;;;40.38;30.45;;;;;;;6.63;88.00;102385.09;4989215;28;20383;-77
2022/05/01 06:15:24;;;;;;;39.63;31.25;;;;;;;6.70;87.83;102381.38;4988573;28;20043;-78
2022/05/01 06:17:51;;;;;;;37.45;31.35;;;;;;;6.76;88.32;102381.16;4988552;28;20046;-79
2022/05/01 06:20:16;;;;;;;39.97;31.85;;;;;;;6.83;88.50;102382.69;4988838;28;20484;-78
2022/05/01 06:22:42;;;;;;;37.65;30.58;;;;;;;6.90;88.68;102384.19;4989246;28;20076;-78
2022/05/01 06:25:07;;;;;;;40.42;31.50;;;;;;;6.98;88.74;102385.69;4988469;28;20026;-77
2022/05/01 06:27:33;;;;;;;42.03;31.63;;;;;;;7.04;88.76;102381.09;4988331;28;20038;-79
2022/05/01 06:29:58;;;;;;;40.03;32.20;;;;;;;7.12;89.03;102384.28;4989246;28;20034;-78
2022/05/01 06:32:23;;;;;;;44.05;31.77;;;;;;;7.21;88.44;102388.38;4985076;28;20033;-78
2022/05/01 06:34:50;;;;;;;39.80;30.80;;;;;;;7.27;87.89;102396.00;4989307;28;20378;-78
2022/05/01 06:37:15;;;;;;;39.53;30.55;;;;;;;7.32;87.76;102386.22;4988007;28;20508;-78
2022/05/01 06:39:41;;;;;;;39.70;31.65;;;;;;;7.41;88.12;102391.13;4987488;28;20034;-77
2022/05/01 06:42:09;;;;;;;41.10;30.58;;;;;;;7.45;87.49;102386.63;4988920;28;20026;-78
2022/05/01 06:44:35;;;;;;;39.78;29.77;;;;;;;7.58;87.54;102394.88;4989463;28;20026;-78
2022/05/01 06:47:00;;;;;;;36.75;29.60;;;;;;;7.63;87.07;102398.22;4988466;28;20031;-79
2022/05/01 06:49:25;;;;;;;36.15;29.20;;;;;;;7.69;86.90;102395.38;4985986;28;20022;-79
2022/05/01 06:51:51;;;;;;;39.35;29.88;;;;;;;7.79;87.10;102397.59;4988804;28;20027;-79
2022/05/01 06:54:16;;;;;;;37.60;29.42;;;;;;;7.85;86.55;102397.34;4987238;28;20505;-79
2022/05/01 06:56:44;;;;;;;38.80;27.95;;;;;;;7.93;85.96;102393.59;4988914;28;20528;-79
2022/05/01 06:59:09;;;;;;;34.55;27.25;;;;;;;8.04;86.02;102397.53;4988040;28;20041;-79
2022/05/01 07:01:34;;;;;;;36.60;28.30;;;;;;;8.12;85.60;102387.59;4987256;28;20015;-79
2022/05/01 07:03:59;;;;;;;34.33;28.10;;;;;;;8.21;85.59;102393.38;4989089;28;20030;-79
2022/05/01 07:06:25;;;;;;;34.85;27.27;;;;;;;8.28;85.46;102384.34;4982563;28;20071;-79
2022/05/01 07:08:50;;;;;;;36.10;27.40;;;;;;;8.38;84.98;102385.72;4984340;28;20046;-79
2022/05/01 07:11:15;;;;;;;36.35;27.98;;;;;;;8.47;85.08;102386.22;4988487;28;20359;-79
2022/05/01 07:13:41;;;;;;;32.80;26.13;;;;;;;8.51;83.77;102384.34;4990859;28;20031;-79
2022/05/01 07:16:06;;;;;;;34.35;27.20;;;;;;;8.65;84.64;102392.47;4991685;28;20108;-79
2022/05/01 07:18:32;;;;;;;31.95;25.35;;;;;;;8.70;82.92;102393.16;4992197;28;20037;-80
2022/05/01 07:21:00;;;;;;;29.25;25.20;;;;;;;8.81;83.12;102394.50;4989800;28;20189;-80
2022/05/01 07:23:27;;;;;;;31.00;24.92;;;;;;;8.85;82.56;102394.28;4990264;28;20022;-79
2022/05/01 07:25:52;;;;;;;28.58;24.52;;;;;;;8.89;81.63;102397.63;4990214;28;20030;-79
2022/05/01 07:28:17;;;;;;;29.45;24.85;;;;;;;8.93;81.96;102392.19;4991148;28;20038;-79
2022/05/01 07:30:43;;;;;;;30.45;23.35;;;;;;;9.00;80.67;102400.66;4991759;28;20085;-79
2022/05/01 07:33:08;;;;;;;29.77;23.58;;;;;;;9.04;81.25;102396.97;4989500;28;20026;-79
2022/05/01 07:35:33;;;;;;;29.42;23.50;;;;;;;9.08;80.38;102404.66;4991435;28;20437;-79
2022/05/01 07:37:59;;;;;;;27.23;23.27;;;;;;;9.15;80.99;102401.75;4991561;28;20037;-78
2022/05/01 07:40:24;;;;;;;28.63;22.50;;;;;;;9.23;80.92;102400.53;4991401;28;20030;-79
2022/05/01 07:42:53;;;;;;;26.65;23.10;;;;;;;9.28;79.58;102395.94;4989881;28;20117;-78
2022/05/01 07:45:19;;;;;;;29.65;23.42;;;;;;;9.37;79.56;102402.56;4991633;28;20023;-79
2022/05/01 07:47:44;;;;;;;27.92;21.95;;;;;;;9.43;78.57;102395.25;4990457;28;20418;-79
2022/05/01 07:50:10;;;;;;;27.58;22.52;;;;;;;9.51;78.44;102401.94;4991076;28;20032;-79
2022/05/01 07:52:35;;;;;;;25.73;22.13;;;;;;;9.59;78.17;102405.06;4990460;28;20141;-78
2022/05/01 07:55:03;;;;;;;28.52;22.45;;;;;;;9.67;77.89;102400.34;4991568;28;20485;-79
2022/05/01 07:57:29;;;;;;;26.38;21.63;;;;;;;9.79;77.85;102397.16;4991326;28;20049;-79
2022/05/01 07:59:54;;;;;;;27.00;21.95;;;;;;;9.94;78.04;102392.94;4990582;28;20030;-79
2022/05/01 08:02:20;;;;;;;29.70;23.08;;;;;;;10.09;77.46;102399.28;4989713;28;20382;-78
2022/05/01 08:04:46;;;;;;;24.77;19.90;;;;;;;10.25;76.68;102387.13;4990544;28;20038;-79
2022/05/01 08:07:12;;;;;;;25.02;20.45;;;;;;;10.36;75.48;102395.34;4991702;28;20033;-78
2022/05/01 08:09:37;;;;;;;22.80;19.55;;;;;;;10.48;74.38;102392.16;4991775;28;20395;-79
2022/05/01 08:12:03;;;;;;;20.15;17.75;;;;;;;10.58;72.59;102382.03;4991025;28;20018;-79
2022/05/01 08:14:28;;;;;;;23.70;19.17;;;;;;;10.67;73.12;102382.41;4990022;28;20045;-79
2022/05/01 08:16:54;;;;;;;22.85;17.35;;;;;;;10.80;72.67;102387.06;4989852;28;20367;-79
2022/05/01 08:22:07;;;;;;;20.33;15.45;;;;;;;11.09;69.89;102383.81;4989731;28;20469;-78
2022/05/01 08:24:35;;;;;;;17.17;14.18;;;;;;;11.24;68.32;102377.75;4990053;28;20026;-78
2022/05/01 08:27:05;;;;;;;16.85;12.63;;;;;;;11.35;67.65;102378.97;4990603;28;20034;-79
2022/05/01 08:29:32;;;;;;;14.35;11.65;;;;;;;11.53;66.51;102378.84;4970967;28;20019;-79
2022/05/01 08:31:59;;;;;;;12.13;10.82;;;;;;;11.68;65.35;102376.34;4986572;28;20030;-79
2022/05/01 08:34:25;;;;;;;12.45;10.88;;;;;;;11.78;63.42;102381.03;4990732;28;20036;-76
2022/05/01 08:36:50;;;;;;;13.77;10.57;;;;;;;11.96;63.98;102370.41;4990348;28;20073;-77
2022/05/01 08:39:15;;;;;;;14.30;11.15;;;;;;;12.13;63.84;102372.97;4990071;28;20034;-77
2022/05/01 08:41:41;;;;;;;12.32;9.38;;;;;;;12.24;61.30;102363.50;4989108;28;20041;-77
2022/05/01 08:44:12;;;;;;;11.23;9.20;;;;;;;12.35;60.19;102362.91;4988730;28;20058;-77
2022/05/01 08:46:55;;;;;;;12.45;10.07;;;;;;;12.51;61.20;102371.66;4990037;28;20022;-77
2022/05/01 08:49:22;;;;;;;9.30;7.88;;;;;;;12.54;56.98;102357.44;4989481;28;20105;-77
2022/05/01 08:51:48;;;;;;;9.73;7.28;;;;;;;12.71;57.78;102359.06;4988941;28;20022;-78
2022/05/01 08:54:18;;;;;;;9.48;7.45;;;;;;;12.89;57.95;102360.66;4989748;28;20026;-76
2022/05/01 08:56:45;;;;;;;11.27;8.50;;;;;;;12.94;56.30;102355.94;4989227;28;20081;-77
2022/05/01 08:59:16;;;;;;;11.15;8.75;;;;;;;13.02;55.76;102358.97;5004309;28;20030;-77
2022/05/01 09:01:43;;;;;;;9.68;7.75;;;;;;;13.14;55.56;102352.94;4989185;28;20398;-78
2022/05/01 09:04:12;;;;;;;11.23;7.75;;;;;;;13.24;55.23;102358.56;4988469;28;20030;-77
2022/05/01 09:06:38;;;;;;;9.90;7.80;;;;;;;13.30;53.97;102352.03;5005248;28;20062;-78
2022/05/01 09:09:08;;;;;;;7.70;6.90;;;;;;;13.34;53.51;102351.75;4990180;28;20126;-78
2022/05/01 09:14:23;;;;;;;8.35;5.53;;;;;;;13.43;49.48;102363.56;4989664;28;20049;-78
2022/05/01 09:17:24;;;;;;;7.97;6.10;;;;;;;13.53;54.23;102358.53;4989063;28;20482;-78
2022/05/01 09:19:51;;;;;;;10.23;7.88;;;;;;;13.59;52.28;102364.28;4986238;28;20092;-78
2022/05/01 09:22:18;;;;;;;9.98;7.05;;;;;;;13.56;50.73;102353.06;4988634;28;20050;-77
2022/05/01 09:24:43;;;;;;;9.27;6.57;;;;;;;13.62;51.45;102353.56;4988835;28;20030;-78
2022/05/01 09:27:27;;;;;;;8.68;6.70;;;;;;;13.72;51.98;102359.97;4990238;28;20445;-78
2022/05/01 09:30:09;;;;;;;7.80;6.93;;;;;;;13.76;51.02;102365.91;4989149;28;20022;-78
2022/05/01 09:32:37;;;;;;;7.28;6.53;;;;;;;13.85;50.11;102356.53;4990302;28;20469;-78
2022/05/01 09:35:06;;;;;;;8.93;6.75;;;;;;;13.86;50.39;102350.28;4989200;28;20026;-78
2022/05/01 09:37:31;;;;;;;9.10;5.90;;;;;;;14.01;51.17;102351.97;5005184;28;20034;-79
2022/05/01 09:39:56;;;;;;;8.68;6.07;;;;;;;14.08;48.62;102355.91;4990274;28;20026;-79
2022/05/01 09:42:25;;;;;;;8.18;6.35;;;;;;;14.04;47.76;102357.06;4989457;28;20391;-77
2022/05/01 09:45:07;;;;;;;9.13;6.28;;;;;;;14.20;50.56;102355.09;4985345;28;20026;-78
2022/05/01 09:47:44;;;;;;;8.88;6.93;;;;;;;14.37;50.34;102352.19;4987883;28;20030;-78
2022/05/01 09:50:10;;;;;;;10.00;6.95;;;;;;;14.57;49.26;102347.44;5001843;28;20549;-78
2022/05/01 09:53:09;;;;;;;7.55;6.68;;;;;;;14.70;51.85;102353.59;4988931;28;20481;-78
2022/05/01 09:55:35;;;;;;;7.50;6.10;;;;;;;14.79;47.39;102347.66;4966465;28;20069;-78
2022/05/01 09:58:12;;;;;;;11.68;7.40;;;;;;;14.80;48.62;102348.50;4987664;28;20495;-77
2022/05/01 10:00:46;;;;;;;9.70;7.45;;;;;;;14.93;46.99;102349.41;4987384;28;20054;-77
2022/05/01 10:03:31;;;;;;;9.15;7.13;;;;;;;14.86;47.54;102342.81;4987341;28;20121;-79
2022/05/01 10:05:58;;;;;;;8.35;6.45;;;;;;;14.99;46.97;102344.53;4987269;28;20034;-80
2022/05/01 10:08:24;;;;;;;9.68;6.63;;;;;;;15.04;46.57;102342.41;4989067;28;20031;-78
2022/05/01 10:10:58;;;;;;;7.80;6.50;;;;;;;15.13;46.30;102335.59;5004026;28;20126;-78
2022/05/01 10:13:27;;;;;;;7.72;6.88;;;;;;;15.21;45.86;102349.19;4987706;28;20018;-78
2022/05/01 10:15:54;;;;;;;7.97;6.50;;;;;;;15.33;45.85;102336.88;4988577;28;20483;-78
2022/05/01 10:18:22;;;;;;;10.75;6.75;;;;;;;15.34;43.49;102339.44;4988712;28;20125;-78
2022/05/01 10:20:48;;;;;;;8.68;6.43;;;;;;;15.42;44.74;102338.88;4989560;28;20038;-78
2022/05/01 10:23:14;;;;;;;8.43;6.65;;;;;;;15.53;43.96;102332.81;4989511;28;20026;-78
2022/05/01 10:25:47;;;;;;;9.15;6.82;;;;;;;15.54;44.62;102329.19;4989171;28;20037;-79
2022/05/01 10:28:26;;;;;;;8.68;6.60;;;;;;;15.57;43.88;102329.81;4989621;28;20403;-78
2022/05/01 10:34:31;;;;;;;7.05;6.25;;;;;;;15.57;44.87;102327.16;4987824;28;20533;-77
2022/05/01 10:37:15;;;;;;;;;;;;;;;15.62;44.95;102325.09;4986908;28;20033;-77
2022/05/01 10:39:41;;;;;;;8.23;6.50;;;;;;;15.46;42.76;102326.25;4987370;28;19913;-77
2022/05/01 10:42:08;;;;;;;10.80;6.53;;;;;;;15.48;43.78;102325.19;4989463;28;20041;-78
2022/05/01 10:44:39;;;;;;;9.15;6.05;;;;;;;15.49;42.47;102316.25;4989562;28;20581;-78
2022/05/01 10:47:13;;;;;;;6.85;5.80;;;;;;;15.48;42.50;102314.56;4988803;28;20137;-78
2022/05/01 10:49:43;;;;;;;7.68;5.88;;;;;;;15.46;40.97;102316.47;4993482;28;20090;-78
2022/05/01 10:52:16;;;;;;;8.80;6.13;;;;;;;15.35;40.85;102319.06;4990425;28;20512;-79
2022/05/01 10:54:54;;;;;;;7.05;6.35;;;;;;;15.33;41.77;102310.34;4993515;28;20208;-78
2022/05/01 10:57:20;;;;;;;8.18;5.82;;;;;;;15.32;42.49;102300.72;4993771;28;20030;-78
2022/05/01 10:59:48;;;;;;;6.72;5.88;;;;;;;15.29;41.55;102303.56;4994315;28;20038;-77
2022/05/01 11:02:22;;;;;;;6.68;5.97;;;;;;;15.27;41.88;102300.19;5009884;28;20402;-78
2022/05/01 11:04:49;;;;;;;8.50;6.28;;;;;;;15.13;40.88;102301.13;4994884;28;20027;-78
2022/05/01 11:07:17;;;;;;;9.13;6.13;;;;;;;15.09;41.30;102302.31;4991394;28;20027;-78
2022/05/01 11:09:45;;;;;;;6.68;5.72;;;;;;;15.18;43.07;102296.34;4992501;28;20258;-78
2022/05/01 11:12:11;;;;;;;7.30;5.95;;;;;;;15.26;42.90;102304.66;4992734;28;20030;-78
2022/05/01 11:14:57;;;;;;;6.82;6.03;;;;;;;15.21;41.86;102296.16;4992318;28;20046;-78
2022/05/01 11:17:42;;;;;;;8.95;6.32;;;;;;;15.27;43.08;102294.88;4992252;28;20502;-78
2022/05/01 11:20:19;;;;;;;9.05;6.55;;;;;;;15.21;42.79;102290.00;4993028;28;20516;-78
2022/05/01 11:22:48;;;;;;;6.63;5.93;;;;;;;15.12;41.72;102285.34;4992624;28;20038;-77
2022/05/01 11:25:38;;;;;;;7.63;5.82;;;;;;;15.30;44.68;102284.06;4988832;28;20121;-78
2022/05/01 11:28:04;;;;;;;7.95;6.40;;;;;;;15.29;42.81;102277.91;4991641;28;20026;-79
2022/05/01 11:30:31;;;;;;;8.00;6.70;;;;;;;15.26;41.27;102271.97;4991175;28;20030;-78
2022/05/01 11:33:06;;;;;;;7.55;6.28;;;;;;;15.30;43.47;102278.75;4992950;28;20386;-79
2022/05/01 11:35:54;;;;;;;7.68;6.63;;;;;;;15.41;43.93;102276.19;4991185;28;20053;-79
2022/05/01 11:38:29;;;;;;;7.05;6.15;;;;;;;15.30;42.34;102271.66;4991311;28;20026;-79
2022/05/01 11:41:02;;;;;;;7.43;6.05;;;;;;;15.21;43.87;102267.00;4991857;28;20030;-78
2022/05/01 11:43:28;;;;;;;9.07;6.78;;;;;;;15.34;42.83;102264.31;4989795;28;20422;-79
2022/05/01 11:45:55;;;;;;;8.60;7.20;;;;;;;15.32;43.58;102255.63;4991445;28;20045;-78
2022/05/01 11:48:21;;;;;;;9.77;6.43;;;;;;;15.32;42.82;102255.63;4991371;28;20382;-78